Magnet, Nebraska
Current Conditions -  °F | °C
As of 2:15 PM on Saturday 25 Oct 2014 (Local Time) from KLCG Reporting Station
Clear Clear  
Wind Chill: 69°   Ceiling: Unl
Heat Index: 69°   Visibility: 10mi
Dew Point: 34°   Wind: 3mph
Humidity: 28%   Direction: 50°NE
Pressure: 30.12"   Gusts: NA
Location:  42.46°N, 97.47°W
Report Text: KLCG 251915Z AUTO 05003KT 10SM CLR 21/01 A3012 RMK AO2 T02070013
Loading
Personal Weather Stations






























Interactive Weather Map
Tropical Storm Tracking
New forecast layout! Learn more

10-Day Weather Forecast

Advertisements
Track Severe Weather on mobile